sensor_id;sensor_type;location;lat;lon;timestamp;pressure;altitude;pressure_sealevel;temperature;humidity
25944;BME280;13742;49.306;8.636;2022-08-14T00:00:09;99989.81;;;25.39;42.83
25944;BME280;13742;49.306;8.636;2022-08-14T00:01:04;99989.58;;;25.41;42.90
25944;BME280;13742;49.306;8.636;2022-08-14T00:02:04;99986.55;;;25.42;42.30
25944;BME280;13742;49.306;8.636;2022-08-14T00:03:04;99982.50;;;25.43;42.34
25944;BME280;13742;49.306;8.636;2022-08-14T00:04:04;99978.75;;;25.42;42.50
25944;BME280;13742;49.306;8.636;2022-08-14T00:05:04;99975.30;;;25.43;42.52
25944;BME280;13742;49.306;8.636;2022-08-14T00:06:04;99973.52;;;25.42;42.65
25944;BME280;13742;49.306;8.636;2022-08-14T00:07:04;99973.53;;;25.43;42.71
25944;BME280;13742;49.306;8.636;2022-08-14T00:08:04;99968.27;;;25.42;43.23
25944;BME280;13742;49.306;8.636;2022-08-14T00:09:04;99963.25;;;25.30;43.76
25944;BME280;13742;49.306;8.636;2022-08-14T00:10:05;99962.80;;;25.28;43.73
25944;BME280;13742;49.306;8.636;2022-08-14T00:11:04;99961.27;;;25.30;43.77
25944;BME280;13742;49.306;8.636;2022-08-14T00:12:05;99959.83;;;25.28;43.84
25944;BME280;13742;49.306;8.636;2022-08-14T00:13:05;99956.80;;;25.27;43.95
25944;BME280;13742;49.306;8.636;2022-08-14T00:14:04;99957.03;;;25.27;43.71
25944;BME280;13742;49.306;8.636;2022-08-14T00:15:06;99956.52;;;25.26;43.84
25944;BME280;13742;49.306;8.636;2022-08-14T00:16:04;99957.39;;;25.28;43.97
25944;BME280;13742;49.306;8.636;2022-08-14T00:17:04;99953.47;;;25.28;44.19
25944;BME280;13742;49.306;8.636;2022-08-14T00:18:04;99957.00;;;25.26;44.21
25944;BME280;13742;49.306;8.636;2022-08-14T00:19:04;99957.20;;;25.27;44.23
25944;BME280;13742;49.306;8.636;2022-08-14T00:20:04;99956.41;;;25.25;44.47
25944;BME280;13742;49.306;8.636;2022-08-14T00:21:04;99956.74;;;25.25;44.61
25944;BME280;13742;49.306;8.636;2022-08-14T00:22:04;99955.33;;;25.25;44.68
25944;BME280;13742;49.306;8.636;2022-08-14T00:23:04;99958.30;;;25.26;44.40
25944;BME280;13742;49.306;8.636;2022-08-14T00:24:04;99956.53;;;25.27;44.56
25944;BME280;13742;49.306;8.636;2022-08-14T00:25:05;99949.91;;;25.25;44.88
25944;BME280;13742;49.306;8.636;2022-08-14T00:26:04;99946.69;;;25.24;45.00
25944;BME280;13742;49.306;8.636;2022-08-14T00:27:04;99944.33;;;25.25;44.96
25944;BME280;13742;49.306;8.636;2022-08-14T00:28:06;99946.19;;;25.24;45.13
25944;BME280;13742;49.306;8.636;2022-08-14T00:29:04;99942.80;;;25.23;45.18
25944;BME280;13742;49.306;8.636;2022-08-14T00:30:05;99939.79;;;25.19;45.47
25944;BME280;13742;49.306;8.636;2022-08-14T00:31:04;99943.45;;;25.21;45.34
25944;BME280;13742;49.306;8.636;2022-08-14T00:32:04;99945.08;;;25.16;45.45
25944;BME280;13742;49.306;8.636;2022-08-14T00:33:04;99941.41;;;25.14;45.38
25944;BME280;13742;49.306;8.636;2022-08-14T00:34:04;99944.33;;;25.13;45.58
25944;BME280;13742;49.306;8.636;2022-08-14T00:35:04;99944.92;;;25.13;45.51
25944;BME280;13742;49.306;8.636;2022-08-14T00:36:04;99943.45;;;25.11;45.79
25944;BME280;13742;49.306;8.636;2022-08-14T00:37:04;99941.09;;;25.11;45.61
25944;BME280;13742;49.306;8.636;2022-08-14T00:38:04;99939.70;;;25.08;45.76
25944;BME280;13742;49.306;8.636;2022-08-14T00:39:04;99946.12;;;25.09;45.87
25944;BME280;13742;49.306;8.636;2022-08-14T00:40:04;99937.27;;;25.10;45.39
25944;BME280;13742;49.306;8.636;2022-08-14T00:41:06;99938.10;;;25.09;46.08
25944;BME280;13742;49.306;8.636;2022-08-14T00:42:04;99938.88;;;25.08;45.58
25944;BME280;13742;49.306;8.636;2022-08-14T00:43:04;99945.73;;;25.10;45.93
25944;BME280;13742;49.306;8.636;2022-08-14T00:44:04;99942.02;;;25.05;46.40
25944;BME280;13742;49.306;8.636;2022-08-14T00:45:05;99945.76;;;25.05;45.90
25944;BME280;13742;49.306;8.636;2022-08-14T00:46:04;99946.20;;;25.07;45.90
25944;BME280;13742;49.306;8.636;2022-08-14T00:47:07;99948.79;;;25.06;46.43
25944;BME280;13742;49.306;8.636;2022-08-14T00:48:04;99943.83;;;25.00;46.73
25944;BME280;13742;49.306;8.636;2022-08-14T00:49:04;99945.35;;;25.00;46.43
25944;BME280;13742;49.306;8.636;2022-08-14T00:50:04;99942.31;;;25.00;46.66
25944;BME280;13742;49.306;8.636;2022-08-14T00:51:04;99939.45;;;25.03;46.50
25944;BME280;13742;49.306;8.636;2022-08-14T00:52:04;99937.33;;;25.02;46.70
25944;BME280;13742;49.306;8.636;2022-08-14T00:53:04;99938.99;;;24.99;46.86
25944;BME280;13742;49.306;8.636;2022-08-14T00:54:04;99940.27;;;24.99;46.88
25944;BME280;13742;49.306;8.636;2022-08-14T00:55:05;99938.66;;;24.99;46.32
25944;BME280;13742;49.306;8.636;2022-08-14T00:56:04;99937.87;;;24.98;46.96
25944;BME280;13742;49.306;8.636;2022-08-14T00:57:04;99940.69;;;24.99;47.09
25944;BME280;13742;49.306;8.636;2022-08-14T00:58:09;99937.68;;;25.01;46.68
25944;BME280;13742;49.306;8.636;2022-08-14T00:59:04;99939.08;;;25.00;46.83
25944;BME280;13742;49.306;8.636;2022-08-14T01:00:05;99939.02;;;25.01;46.77
25944;BME280;13742;49.306;8.636;2022-08-14T01:01:07;99941.22;;;25.01;46.66
25944;BME280;13742;49.306;8.636;2022-08-14T01:02:04;99940.10;;;24.99;47.03
25944;BME280;13742;49.306;8.636;2022-08-14T01:03:04;99942.34;;;24.97;47.07
25944;BME280;13742;49.306;8.636;2022-08-14T01:04:04;99939.89;;;24.96;47.01
25944;BME280;13742;49.306;8.636;2022-08-14T01:05:06;99941.83;;;24.96;47.08
25944;BME280;13742;49.306;8.636;2022-08-14T01:06:05;99942.66;;;24.95;47.33
25944;BME280;13742;49.306;8.636;2022-08-14T01:07:06;99941.16;;;24.89;47.50
25944;BME280;13742;49.306;8.636;2022-08-14T01:08:04;99941.02;;;24.91;47.52
25944;BME280;13742;49.306;8.636;2022-08-14T01:09:04;99939.56;;;24.91;47.55
25944;BME280;13742;49.306;8.636;2022-08-14T01:10:04;99935.41;;;24.89;47.76
25944;BME280;13742;49.306;8.636;2022-08-14T01:11:04;99933.71;;;24.89;47.68
25944;BME280;13742;49.306;8.636;2022-08-14T01:12:04;99929.83;;;24.83;48.01
25944;BME280;13742;49.306;8.636;2022-08-14T01:13:04;99925.45;;;24.84;47.72
25944;BME280;13742;49.306;8.636;2022-08-14T01:14:04;99925.55;;;24.84;47.45
25944;BME280;13742;49.306;8.636;2022-08-14T01:15:04;99928.19;;;24.80;47.97
25944;BME280;13742;49.306;8.636;2022-08-14T01:16:05;99928.85;;;24.74;48.30
25944;BME280;13742;49.306;8.636;2022-08-14T01:17:04;99928.28;;;24.75;48.29
25944;BME280;13742;49.306;8.636;2022-08-14T01:18:10;99927.44;;;24.75;48.36
25944;BME280;13742;49.306;8.636;2022-08-14T01:19:09;99927.51;;;24.73;48.46
25944;BME280;13742;49.306;8.636;2022-08-14T01:20:09;99927.45;;;24.76;48.17
25944;BME280;13742;49.306;8.636;2022-08-14T01:21:05;99925.12;;;24.71;48.59
25944;BME280;13742;49.306;8.636;2022-08-14T01:22:06;99924.49;;;24.68;48.80
25944;BME280;13742;49.306;8.636;2022-08-14T01:23:05;99922.33;;;24.70;48.43
25944;BME280;13742;49.306;8.636;2022-08-14T01:24:06;99922.26;;;24.72;48.60
25944;BME280;13742;49.306;8.636;2022-08-14T01:25:05;99924.22;;;24.72;48.26
25944;BME280;13742;49.306;8.636;2022-08-14T01:26:04;99921.89;;;24.70;48.60
25944;BME280;13742;49.306;8.636;2022-08-14T01:27:04;99917.08;;;24.69;48.77
25944;BME280;13742;49.306;8.636;2022-08-14T01:28:05;99919.66;;;24.67;48.83
25944;BME280;13742;49.306;8.636;2022-08-14T01:29:04;99912.00;;;24.63;48.84
25944;BME280;13742;49.306;8.636;2022-08-14T01:30:05;99911.08;;;24.63;48.94
25944;BME280;13742;49.306;8.636;2022-08-14T01:32:04;99902.97;;;24.63;48.95
25944;BME280;13742;49.306;8.636;2022-08-14T01:33:04;99898.30;;;24.62;49.16
25944;BME280;13742;49.306;8.636;2022-08-14T01:34:04;99897.98;;;24.63;48.96
25944;BME280;13742;49.306;8.636;2022-08-14T01:35:34;99895.35;;;24.63;48.93
25944;BME280;13742;49.306;8.636;2022-08-14T01:36:06;99890.38;;;24.62;48.87
25944;BME280;13742;49.306;8.636;2022-08-14T01:37:04;99889.30;;;24.58;48.97
25944;BME280;13742;49.306;8.636;2022-08-14T01:38:04;99886.75;;;24.57;48.66
25944;BME280;13742;49.306;8.636;2022-08-14T01:39:08;99885.39;;;24.56;49.32
25944;BME280;13742;49.306;8.636;2022-08-14T01:40:04;99882.87;;;24.57;49.25
25944;BME280;13742;49.306;8.636;2022-08-14T01:41:06;99876.59;;;24.48;49.41
25944;BME280;13742;49.306;8.636;2022-08-14T01:42:04;99876.15;;;24.52;49.15
25944;BME280;13742;49.306;8.636;2022-08-14T01:43:07;99873.49;;;24.41;49.46
25944;BME280;13742;49.306;8.636;2022-08-14T01:44:06;99870.91;;;24.42;49.64
25944;BME280;13742;49.306;8.636;2022-08-14T01:45:11;99871.86;;;24.45;49.17
25944;BME280;13742;49.306;8.636;2022-08-14T01:46:05;99868.98;;;24.47;49.31
25944;BME280;13742;49.306;8.636;2022-08-14T01:47:09;99875.05;;;24.44;49.55
25944;BME280;13742;49.306;8.636;2022-08-14T01:48:04;99870.95;;;24.44;49.58
25944;BME280;13742;49.306;8.636;2022-08-14T01:49:06;99872.77;;;24.42;49.55
25944;BME280;13742;49.306;8.636;2022-08-14T01:50:06;99873.26;;;24.41;49.71
25944;BME280;13742;49.306;8.636;2022-08-14T01:51:05;99877.19;;;24.40;49.83
25944;BME280;13742;49.306;8.636;2022-08-14T01:52:04;99876.86;;;24.39;49.82
25944;BME280;13742;49.306;8.636;2022-08-14T01:53:04;99874.52;;;24.42;49.61
25944;BME280;13742;49.306;8.636;2022-08-14T01:54:15;99875.95;;;24.41;49.69
25944;BME280;13742;49.306;8.636;2022-08-14T01:55:05;99876.64;;;24.42;49.68
25944;BME280;13742;49.306;8.636;2022-08-14T01:56:04;99877.85;;;24.37;49.89
25944;BME280;13742;49.306;8.636;2022-08-14T01:57:10;99877.00;;;24.37;49.70
25944;BME280;13742;49.306;8.636;2022-08-14T01:58:04;99880.05;;;24.33;49.99
25944;BME280;13742;49.306;8.636;2022-08-14T01:59:08;99878.92;;;24.36;49.83
25944;BME280;13742;49.306;8.636;2022-08-14T02:00:04;99880.77;;;24.36;49.86
25944;BME280;13742;49.306;8.636;2022-08-14T02:01:04;99880.80;;;24.37;49.59
25944;BME280;13742;49.306;8.636;2022-08-14T02:02:06;99880.88;;;24.38;49.35
25944;BME280;13742;49.306;8.636;2022-08-14T02:03:04;99881.02;;;24.35;49.51
25944;BME280;13742;49.306;8.636;2022-08-14T02:04:04;99883.59;;;24.37;49.37
25944;BME280;13742;49.306;8.636;2022-08-14T02:05:04;99884.59;;;24.36;49.53
25944;BME280;13742;49.306;8.636;2022-08-14T02:06:04;99879.38;;;24.33;49.78
25944;BME280;13742;49.306;8.636;2022-08-14T02:07:05;99878.84;;;24.32;50.05
25944;BME280;13742;49.306;8.636;2022-08-14T02:08:05;99879.23;;;24.34;49.62
25944;BME280;13742;49.306;8.636;2022-08-14T02:09:04;99878.81;;;24.34;49.48
25944;BME280;13742;49.306;8.636;2022-08-14T02:10:06;99876.48;;;24.32;49.60
25944;BME280;13742;49.306;8.636;2022-08-14T02:11:09;99872.77;;;24.31;49.46
25944;BME280;13742;49.306;8.636;2022-08-14T02:12:05;99870.80;;;24.29;49.75
25944;BME280;13742;49.306;8.636;2022-08-14T02:13:07;99869.08;;;24.27;49.97
25944;BME280;13742;49.306;8.636;2022-08-14T02:14:05;99868.90;;;24.26;49.67
25944;BME280;13742;49.306;8.636;2022-08-14T02:15:04;99868.47;;;24.26;49.50
25944;BME280;13742;49.306;8.636;2022-08-14T02:16:04;99867.78;;;24.25;49.63
25944;BME280;13742;49.306;8.636;2022-08-14T02:17:08;99867.02;;;24.19;49.96
25944;BME280;13742;49.306;8.636;2022-08-14T02:18:04;99869.73;;;24.19;49.60
25944;BME280;13742;49.306;8.636;2022-08-14T02:19:05;99866.64;;;24.17;49.97
25944;BME280;13742;49.306;8.636;2022-08-14T02:20:04;99870.61;;;24.16;49.92
25944;BME280;13742;49.306;8.636;2022-08-14T02:21:04;99869.81;;;24.13;49.89
25944;BME280;13742;49.306;8.636;2022-08-14T02:22:05;99869.78;;;24.11;50.20
25944;BME280;13742;49.306;8.636;2022-08-14T02:23:04;99867.64;;;24.10;50.08
25944;BME280;13742;49.306;8.636;2022-08-14T02:24:04;99863.36;;;24.04;50.27
25944;BME280;13742;49.306;8.636;2022-08-14T02:25:04;99859.50;;;24.06;49.96
25944;BME280;13742;49.306;8.636;2022-08-14T02:27:04;99861.77;;;24.06;49.92
25944;BME280;13742;49.306;8.636;2022-08-14T02:28:34;99860.22;;;23.98;50.35
25944;BME280;13742;49.306;8.636;2022-08-14T02:29:05;99857.22;;;23.94;50.68
25944;BME280;13742;49.306;8.636;2022-08-14T02:30:04;99856.23;;;23.92;50.62
25944;BME280;13742;49.306;8.636;2022-08-14T02:31:07;99859.81;;;23.94;50.03
25944;BME280;13742;49.306;8.636;2022-08-14T02:32:04;99856.08;;;23.92;50.58
25944;BME280;13742;49.306;8.636;2022-08-14T02:33:05;99854.36;;;23.91;50.64
25944;BME280;13742;49.306;8.636;2022-08-14T02:34:08;99850.76;;;23.91;50.58
25944;BME280;13742;49.306;8.636;2022-08-14T02:35:09;99850.98;;;23.91;50.65
25944;BME280;13742;49.306;8.636;2022-08-14T02:36:04;99845.34;;;23.86;50.96
25944;BME280;13742;49.306;8.636;2022-08-14T02:37:09;99848.55;;;23.85;50.76
25944;BME280;13742;49.306;8.636;2022-08-14T02:38:04;99845.26;;;23.85;50.65
25944;BME280;13742;49.306;8.636;2022-08-14T02:39:04;99845.89;;;23.84;50.78
25944;BME280;13742;49.306;8.636;2022-08-14T02:40:04;99844.05;;;23.85;50.94
25944;BME280;13742;49.306;8.636;2022-08-14T02:41:06;99844.27;;;23.82;51.34
25944;BME280;13742;49.306;8.636;2022-08-14T02:42:05;99846.02;;;23.82;51.27
25944;BME280;13742;49.306;8.636;2022-08-14T02:43:05;99842.33;;;23.81;51.41
25944;BME280;13742;49.306;8.636;2022-08-14T02:44:04;99847.03;;;23.82;51.04
25944;BME280;13742;49.306;8.636;2022-08-14T02:45:04;99839.95;;;23.80;51.23
25944;BME280;13742;49.306;8.636;2022-08-14T02:46:07;99843.39;;;23.80;51.40
25944;BME280;13742;49.306;8.636;2022-08-14T02:47:04;99840.55;;;23.77;51.66
25944;BME280;13742;49.306;8.636;2022-08-14T02:48:05;99837.17;;;23.73;51.76
25944;BME280;13742;49.306;8.636;2022-08-14T02:49:05;99837.40;;;23.76;51.48
25944;BME280;13742;49.306;8.636;2022-08-14T02:50:04;99837.63;;;23.75;51.60
25944;BME280;13742;49.306;8.636;2022-08-14T02:51:05;99834.70;;;23.76;51.48
25944;BME280;13742;49.306;8.636;2022-08-14T02:52:05;99831.39;;;23.74;51.63
25944;BME280;13742;49.306;8.636;2022-08-14T02:53:04;99830.11;;;23.68;51.90
25944;BME280;13742;49.306;8.636;2022-08-14T02:54:04;99830.13;;;23.69;51.88
25944;BME280;13742;49.306;8.636;2022-08-14T02:55:04;99830.17;;;23.68;52.08
25944;BME280;13742;49.306;8.636;2022-08-14T02:56:04;99829.00;;;23.68;52.13
25944;BME280;13742;49.306;8.636;2022-08-14T02:57:05;99825.47;;;23.67;52.17
25944;BME280;13742;49.306;8.636;2022-08-14T02:58:04;99828.56;;;23.67;52.09
25944;BME280;13742;49.306;8.636;2022-08-14T02:59:05;99827.31;;;23.68;51.74
25944;BME280;13742;49.306;8.636;2022-08-14T03:00:04;99822.00;;;23.63;52.33
25944;BME280;13742;49.306;8.636;2022-08-14T03:01:05;99821.17;;;23.64;52.22
25944;BME280;13742;49.306;8.636;2022-08-14T03:02:04;99820.36;;;23.59;52.57
25944;BME280;13742;49.306;8.636;2022-08-14T03:03:04;99820.00;;;23.63;52.26
25944;BME280;13742;49.306;8.636;2022-08-14T03:04:05;99819.30;;;23.63;52.25
25944;BME280;13742;49.306;8.636;2022-08-14T03:05:04;99815.97;;;23.60;52.27
25944;BME280;13742;49.306;8.636;2022-08-14T03:06:04;99816.14;;;23.60;52.65
25944;BME280;13742;49.306;8.636;2022-08-14T03:07:04;99821.45;;;23.61;52.65
25944;BME280;13742;49.306;8.636;2022-08-14T03:08:08;99819.02;;;23.55;52.69
25944;BME280;13742;49.306;8.636;2022-08-14T03:09:04;99821.50;;;23.58;52.60
25944;BME280;13742;49.306;8.636;2022-08-14T03:10:06;99820.50;;;23.57;52.57
25944;BME280;13742;49.306;8.636;2022-08-14T03:11:06;99819.95;;;23.55;52.66
25944;BME280;13742;49.306;8.636;2022-08-14T03:12:04;99824.06;;;23.54;52.77
25944;BME280;13742;49.306;8.636;2022-08-14T03:13:05;99822.61;;;23.54;52.58
25944;BME280;13742;49.306;8.636;2022-08-14T03:14:04;99822.90;;;23.50;52.92
25944;BME280;13742;49.306;8.636;2022-08-14T03:15:08;99826.11;;;23.55;52.85
25944;BME280;13742;49.306;8.636;2022-08-14T03:16:04;99823.38;;;23.53;52.69
25944;BME280;13742;49.306;8.636;2022-08-14T03:17:05;99825.80;;;23.53;52.74
25944;BME280;13742;49.306;8.636;2022-08-14T03:18:08;99823.63;;;23.53;53.18
25944;BME280;13742;49.306;8.636;2022-08-14T03:19:06;99822.95;;;23.49;53.06
25944;BME280;13742;49.306;8.636;2022-08-14T03:20:05;99822.56;;;23.50;53.03
25944;BME280;13742;49.306;8.636;2022-08-14T03:21:05;99822.14;;;23.51;52.79
25944;BME280;13742;49.306;8.636;2022-08-14T03:22:04;99819.03;;;23.52;52.82
25944;BME280;13742;49.306;8.636;2022-08-14T03:23:04;99823.63;;;23.53;52.84
25944;BME280;13742;49.306;8.636;2022-08-14T03:24:09;99826.05;;;23.52;52.71
25944;BME280;13742;49.306;8.636;2022-08-14T03:25:04;99825.97;;;23.53;52.76
25944;BME280;13742;49.306;8.636;2022-08-14T03:26:07;99828.17;;;23.54;52.83
25944;BME280;13742;49.306;8.636;2022-08-14T03:27:05;99828.18;;;23.53;52.71
25944;BME280;13742;49.306;8.636;2022-08-14T03:28:08;99826.40;;;23.53;52.89
25944;BME280;13742;49.306;8.636;2022-08-14T03:29:04;99829.95;;;23.48;53.16
25944;BME280;13742;49.306;8.636;2022-08-14T03:30:04;99828.12;;;23.49;53.06
25944;BME280;13742;49.306;8.636;2022-08-14T03:31:05;99826.95;;;23.46;53.23
25944;BME280;13742;49.306;8.636;2022-08-14T03:32:05;99826.55;;;23.23;54.14
25944;BME280;13742;49.306;8.636;2022-08-14T03:33:04;99828.49;;;23.29;54.05
25944;BME280;13742;49.306;8.636;2022-08-14T03:34:04;99828.97;;;23.35;53.65
25944;BME280;13742;49.306;8.636;2022-08-14T03:35:04;99829.75;;;23.23;54.15
25944;BME280;13742;49.306;8.636;2022-08-14T03:36:08;99827.13;;;23.06;54.69
25944;BME280;13742;49.306;8.636;2022-08-14T03:37:34;99833.42;;;23.17;54.16
25944;BME280;13742;49.306;8.636;2022-08-14T03:38:41;99835.03;;;23.12;54.42
25944;BME280;13742;49.306;8.636;2022-08-14T03:39:24;99840.44;;;23.13;54.34
25944;BME280;13742;49.306;8.636;2022-08-14T03:40:05;99836.28;;;23.17;54.16
25944;BME280;13742;49.306;8.636;2022-08-14T03:41:05;99837.95;;;23.15;54.63
25944;BME280;13742;49.306;8.636;2022-08-14T03:42:04;99835.81;;;23.14;54.54
25944;BME280;13742;49.306;8.636;2022-08-14T03:43:05;99834.96;;;23.17;54.41
25944;BME280;13742;49.306;8.636;2022-08-14T03:44:04;99838.83;;;23.22;54.17
25944;BME280;13742;49.306;8.636;2022-08-14T03:45:35;99834.41;;;23.20;54.34
25944;BME280;13742;49.306;8.636;2022-08-14T03:46:04;99834.13;;;23.19;54.24
25944;BME280;13742;49.306;8.636;2022-08-14T03:47:04;99834.12;;;23.22;53.63
25944;BME280;13742;49.306;8.636;2022-08-14T03:49:04;99832.17;;;23.26;53.19
25944;BME280;13742;49.306;8.636;2022-08-14T03:50:05;99832.45;;;23.28;53.34
25944;BME280;13742;49.306;8.636;2022-08-14T03:51:05;99832.46;;;23.29;53.60
25944;BME280;13742;49.306;8.636;2022-08-14T03:52:04;99833.33;;;23.30;53.95
25944;BME280;13742;49.306;8.636;2022-08-14T03:53:04;99829.98;;;23.30;53.55
25944;BME280;13742;49.306;8.636;2022-08-14T03:54:05;99831.34;;;23.31;53.69
25944;BME280;13742;49.306;8.636;2022-08-14T03:55:05;99827.03;;;23.32;53.80
25944;BME280;13742;49.306;8.636;2022-08-14T03:56:04;99822.52;;;23.29;54.07
25944;BME280;13742;49.306;8.636;2022-08-14T03:57:04;99825.67;;;23.30;53.96
25944;BME280;13742;49.306;8.636;2022-08-14T03:58:07;99821.47;;;23.32;53.66
25944;BME280;13742;49.306;8.636;2022-08-14T03:59:06;99821.61;;;23.34;53.52
25944;BME280;13742;49.306;8.636;2022-08-14T04:00:09;99821.51;;;23.34;53.86
25944;BME280;13742;49.306;8.636;2022-08-14T04:01:04;99825.37;;;23.28;54.23
25944;BME280;13742;49.306;8.636;2022-08-14T04:02:04;99826.14;;;23.33;53.89
25944;BME280;13742;49.306;8.636;2022-08-14T04:03:05;99828.80;;;23.17;54.48
25944;BME280;13742;49.306;8.636;2022-08-14T04:04:05;99830.66;;;23.22;54.36
25944;BME280;13742;49.306;8.636;2022-08-14T04:05:05;99828.85;;;23.25;54.16
25944;BME280;13742;49.306;8.636;2022-08-14T04:06:04;99832.35;;;23.27;53.95
25944;BME280;13742;49.306;8.636;2022-08-14T04:07:04;99834.66;;;23.28;53.62
25944;BME280;13742;49.306;8.636;2022-08-14T04:08:07;99830.33;;;23.28;53.85
25944;BME280;13742;49.306;8.636;2022-08-14T04:09:04;99831.14;;;23.25;54.25
25944;BME280;13742;49.306;8.636;2022-08-14T04:10:04;99826.88;;;23.19;54.05
25944;BME280;13742;49.306;8.636;2022-08-14T04:11:05;99826.72;;;23.14;54.43
25944;BME280;13742;49.306;8.636;2022-08-14T04:12:05;99830.86;;;23.19;54.07
25944;BME280;13742;49.306;8.636;2022-08-14T04:13:05;99833.40;;;23.20;54.03
25944;BME280;13742;49.306;8.636;2022-08-14T04:14:04;99831.38;;;23.20;53.79
25944;BME280;13742;49.306;8.636;2022-08-14T04:15:05;99832.79;;;23.23;53.51
25944;BME280;13742;49.306;8.636;2022-08-14T04:16:05;99833.22;;;23.24;53.81
25944;BME280;13742;49.306;8.636;2022-08-14T04:17:04;99830.91;;;23.27;53.21
25944;BME280;13742;49.306;8.636;2022-08-14T04:18:05;99830.50;;;23.27;53.42
25944;BME280;13742;49.306;8.636;2022-08-14T04:19:04;99829.61;;;23.28;53.49
25944;BME280;13742;49.306;8.636;2022-08-14T04:20:05;99832.05;;;23.30;53.24
25944;BME280;13742;49.306;8.636;2022-08-14T04:21:04;99826.17;;;23.31;53.00
25944;BME280;13742;49.306;8.636;2022-08-14T04:22:05;99830.91;;;23.32;52.91
25944;BME280;13742;49.306;8.636;2022-08-14T04:23:05;99827.52;;;23.33;53.06
25944;BME280;13742;49.306;8.636;2022-08-14T04:24:05;99826.16;;;23.34;52.56
25944;BME280;13742;49.306;8.636;2022-08-14T04:25:04;99826.67;;;23.35;52.81
25944;BME280;13742;49.306;8.636;2022-08-14T04:26:05;99826.36;;;23.36;52.36
25944;BME280;13742;49.306;8.636;2022-08-14T04:27:07;99829.34;;;23.37;52.34
25944;BME280;13742;49.306;8.636;2022-08-14T04:28:05;99827.24;;;23.38;52.09
25944;BME280;13742;49.306;8.636;2022-08-14T04:29:04;99825.81;;;23.39;52.26
25944;BME280;13742;49.306;8.636;2022-08-14T04:30:04;99825.41;;;23.40;53.15
25944;BME280;13742;49.306;8.636;2022-08-14T04:31:04;99826.03;;;23.42;52.56
25944;BME280;13742;49.306;8.636;2022-08-14T04:32:05;99828.64;;;23.41;52.11
25944;BME280;13742;49.306;8.636;2022-08-14T04:33:04;99829.00;;;23.42;52.45
25944;BME280;13742;49.306;8.636;2022-08-14T04:34:04;99829.33;;;23.42;52.40
25944;BME280;13742;49.306;8.636;2022-08-14T04:35:04;99830.80;;;23.44;52.18
25944;BME280;13742;49.306;8.636;2022-08-14T04:36:04;99830.02;;;23.43;52.19
25944;BME280;13742;49.306;8.636;2022-08-14T04:37:09;99829.02;;;23.43;52.35
25944;BME280;13742;49.306;8.636;2022-08-14T04:38:09;99830.98;;;23.45;53.06
25944;BME280;13742;49.306;8.636;2022-08-14T04:39:09;99827.09;;;23.45;53.13
25944;BME280;13742;49.306;8.636;2022-08-14T04:40:09;99826.75;;;23.44;53.32
25944;BME280;13742;49.306;8.636;2022-08-14T04:41:09;99827.72;;;23.42;53.32
25944;BME280;13742;49.306;8.636;2022-08-14T04:42:09;99831.88;;;23.37;53.54
25944;BME280;13742;49.306;8.636;2022-08-14T04:43:09;99833.43;;;23.36;52.85
25944;BME280;13742;49.306;8.636;2022-08-14T04:44:04;99835.45;;;23.36;53.07
25944;BME280;13742;49.306;8.636;2022-08-14T04:45:04;99835.01;;;23.35;52.44
25944;BME280;13742;49.306;8.636;2022-08-14T04:46:05;99832.55;;;23.34;52.84
25944;BME280;13742;49.306;8.636;2022-08-14T04:47:09;99837.53;;;23.35;52.30
25944;BME280;13742;49.306;8.636;2022-08-14T04:48:09;99833.05;;;23.33;52.94
25944;BME280;13742;49.306;8.636;2022-08-14T04:49:04;99832.52;;;23.32;52.83
25944;BME280;13742;49.306;8.636;2022-08-14T04:50:04;99832.19;;;23.32;52.88
25944;BME280;13742;49.306;8.636;2022-08-14T04:51:05;99831.08;;;23.31;53.42
25944;BME280;13742;49.306;8.636;2022-08-14T04:52:04;99830.80;;;23.30;53.68
25944;BME280;13742;49.306;8.636;2022-08-14T04:53:04;99831.99;;;23.27;53.85
25944;BME280;13742;49.306;8.636;2022-08-14T04:54:04;99826.02;;;23.04;54.63
25944;BME280;13742;49.306;8.636;2022-08-14T04:55:05;99827.92;;;23.05;54.57
25944;BME280;13742;49.306;8.636;2022-08-14T04:56:04;99825.66;;;22.83;54.97
25944;BME280;13742;49.306;8.636;2022-08-14T04:57:04;99829.66;;;22.76;55.24
25944;BME280;13742;49.306;8.636;2022-08-14T04:58:04;99831.45;;;22.82;54.99
25944;BME280;13742;49.306;8.636;2022-08-14T04:59:05;99827.78;;;22.74;55.14
25944;BME280;13742;49.306;8.636;2022-08-14T05:00:04;99831.49;;;22.55;55.77
25944;BME280;13742;49.306;8.636;2022-08-14T05:01:06;99828.80;;;22.71;54.80
25944;BME280;13742;49.306;8.636;2022-08-14T05:02:04;99827.92;;;22.74;54.44
25944;BME280;13742;49.306;8.636;2022-08-14T05:03:04;99832.55;;;22.74;55.00
25944;BME280;13742;49.306;8.636;2022-08-14T05:04:04;99830.98;;;22.74;54.96
25944;BME280;13742;49.306;8.636;2022-08-14T05:05:04;99829.61;;;22.74;54.95
25944;BME280;13742;49.306;8.636;2022-08-14T05:06:05;99829.45;;;22.73;54.65
25944;BME280;13742;49.306;8.636;2022-08-14T05:07:04;99831.46;;;22.74;54.21
25944;BME280;13742;49.306;8.636;2022-08-14T05:08:09;99832.15;;;22.70;54.95
25944;BME280;13742;49.306;8.636;2022-08-14T05:09:04;99831.28;;;22.69;55.00
25944;BME280;13742;49.306;8.636;2022-08-14T05:10:04;99831.87;;;22.57;55.30
25944;BME280;13742;49.306;8.636;2022-08-14T05:11:06;99830.92;;;22.55;55.35
25944;BME280;13742;49.306;8.636;2022-08-14T05:12:04;99830.83;;;22.48;55.77
25944;BME280;13742;49.306;8.636;2022-08-14T05:13:16;99830.61;;;22.41;55.78
25944;BME280;13742;49.306;8.636;2022-08-14T05:14:04;99834.90;;;22.30;55.63
25944;BME280;13742;49.306;8.636;2022-08-14T05:15:04;99832.22;;;22.32;55.31
25944;BME280;13742;49.306;8.636;2022-08-14T05:16:04;99831.30;;;22.27;55.44
25944;BME280;13742;49.306;8.636;2022-08-14T05:17:04;99827.91;;;22.26;55.41
25944;BME280;13742;49.306;8.636;2022-08-14T05:18:07;99830.45;;;22.31;55.03
25944;BME280;13742;49.306;8.636;2022-08-14T05:19:28;99828.95;;;22.32;55.00
25944;BME280;13742;49.306;8.636;2022-08-14T05:20:04;99826.73;;;22.27;55.17